createdAt,value
2022-08-16T00:01:33.708Z,98851.22
2022-08-16T00:04:05.356Z,98854.03
2022-08-16T00:06:34.059Z,98848.69
2022-08-16T00:09:06.515Z,98853.00
2022-08-16T00:11:35.592Z,98853.53
2022-08-16T00:14:08.620Z,98858.09
2022-08-16T00:17:01.502Z,98862.41
2022-08-16T00:19:40.980Z,98860.38
2022-08-16T00:22:13.634Z,98861.88
2022-08-16T00:24:46.625Z,98857.78
2022-08-16T00:27:17.419Z,98860.84
2022-08-16T00:29:46.225Z,98870.75
2022-08-16T00:32:18.276Z,98865.16
2022-08-16T00:34:52.894Z,98873.78
2022-08-16T00:37:58.498Z,98877.34
2022-08-16T00:40:34.235Z,98873.28
2022-08-16T00:43:12.208Z,98874.25
2022-08-16T00:46:22.427Z,98879.34
2022-08-16T00:49:02.548Z,98880.84
2022-08-16T00:51:31.466Z,98882.38
2022-08-16T00:54:00.327Z,98880.34
2022-08-16T00:56:56.916Z,98891.06
2022-08-16T00:59:26.665Z,98895.38
2022-08-16T01:01:57.103Z,98890.53
2022-08-16T01:04:30.910Z,98887.97
2022-08-16T01:07:04.878Z,98895.06
2022-08-16T01:09:42.754Z,98896.84
2022-08-16T01:12:26.802Z,98900.41
2022-08-16T01:15:00.492Z,98902.66
2022-08-16T01:17:36.741Z,98900.63
2022-08-16T01:20:24.454Z,98902.38
2022-08-16T01:23:58.479Z,98904.13
2022-08-16T01:26:35.055Z,98907.91
2022-08-16T01:29:09.787Z,98922.19
2022-08-16T01:31:42.748Z,98933.88
2022-08-16T01:34:22.801Z,98935.13
2022-08-16T01:37:04.323Z,98936.09
2022-08-16T01:39:35.195Z,98939.38
2022-08-16T01:42:12.089Z,98945.97
2022-08-16T01:44:43.390Z,98943.63
2022-08-16T01:47:12.593Z,98954.59
2022-08-16T01:50:42.964Z,98959.38
2022-08-16T01:52:36.923Z,98969.06
2022-08-16T01:55:08.617Z,98969.75
2022-08-16T01:57:39.752Z,98971.72
2022-08-16T02:00:29.109Z,98970.91
2022-08-16T02:02:58.632Z,98973.94
2022-08-16T02:05:30.747Z,98977.72
2022-08-16T02:08:00.136Z,98975.91
2022-08-16T02:10:29.764Z,98976.41
2022-08-16T02:13:03.602Z,98978.16
2022-08-16T02:15:35.586Z,98979.34
2022-08-16T02:18:12.428Z,98979.06
2022-08-16T02:20:45.580Z,98977.53
2022-08-16T02:23:17.030Z,98979.50
2022-08-16T02:25:52.874Z,98981.25
2022-08-16T02:28:24.219Z,98990.66
2022-08-16T02:30:57.625Z,98986.56
2022-08-16T02:33:44.508Z,98992.41
2022-08-16T02:36:48.110Z,98985.50
2022-08-16T02:39:07.127Z,98991.13
2022-08-16T02:41:39.486Z,98992.69
2022-08-16T02:44:10.010Z,98998.28
2022-08-16T02:46:39.068Z,98990.09
2022-08-16T02:49:20.401Z,98983.47
2022-08-16T02:51:48.963Z,98983.19
2022-08-16T02:54:18.807Z,98978.31
2022-08-16T02:56:52.543Z,98990.81
2022-08-16T02:59:22.839Z,98988.00
2022-08-16T03:01:52.234Z,98985.94
2022-08-16T03:04:46.312Z,98980.31
2022-08-16T03:07:15.530Z,98976.00
2022-08-16T03:09:44.770Z,98973.41
2022-08-16T03:12:16.623Z,98976.22
2022-08-16T03:14:47.608Z,98963.38
2022-08-16T03:17:16.551Z,98958.00
2022-08-16T03:19:48.628Z,98958.97
2022-08-16T03:22:29.586Z,98960.72
2022-08-16T03:25:07.506Z,98953.28
2022-08-16T03:27:37.468Z,98954.78
2022-08-16T03:30:30.044Z,98950.41
2022-08-16T03:32:59.048Z,98961.88
2022-08-16T03:35:32.620Z,98955.72
2022-08-16T03:38:32.391Z,98944.25
2022-08-16T03:40:54.562Z,98947.50
2022-08-16T03:43:52.004Z,98932.94
2022-08-16T03:46:45.124Z,98929.03
2022-08-16T03:49:03.354Z,98922.03
2022-08-16T03:51:31.992Z,98925.28
2022-08-16T03:54:01.543Z,98915.28
2022-08-16T03:56:30.967Z,98918.75
2022-08-16T03:59:00.743Z,98919.94
2022-08-16T04:01:29.973Z,98916.09
2022-08-16T04:03:58.659Z,98911.66
2022-08-16T04:06:28.148Z,98905.72
2022-08-16T04:08:57.017Z,98911.78
2022-08-16T04:11:25.653Z,98902.72
2022-08-16T04:14:00.595Z,98906.72
2022-08-16T04:16:37.243Z,98909.97
2022-08-16T04:19:06.552Z,98904.56
2022-08-16T04:21:45.938Z,98904.78
2022-08-16T04:24:16.813Z,98900.69
2022-08-16T04:26:46.064Z,98900.13
2022-08-16T04:29:21.763Z,98892.66
2022-08-16T04:31:56.644Z,98902.09
2022-08-16T04:34:30.348Z,98905.34
2022-08-16T04:37:01.465Z,98893.78
2022-08-16T04:39:47.471Z,98890.41
2022-08-16T04:42:26.032Z,98888.38
2022-08-16T04:45:02.036Z,98881.88
2022-08-16T04:47:35.747Z,98886.41
2022-08-16T04:50:08.918Z,98887.16
2022-08-16T04:52:38.988Z,98884.88
2022-08-16T04:55:15.199Z,98882.84
2022-08-16T04:57:45.160Z,98893.53
2022-08-16T05:00:31.659Z,98897.13
2022-08-16T05:03:08.266Z,98880.44
2022-08-16T05:05:45.129Z,98881.97
2022-08-16T05:08:28.187Z,98884.47
2022-08-16T05:11:05.451Z,98881.88
2022-08-16T05:13:41.665Z,98877.03
2022-08-16T05:16:21.497Z,98878.00
2022-08-16T05:18:53.792Z,98879.19
2022-08-16T05:21:27.378Z,98870.19
2022-08-16T05:24:06.922Z,98864.00
2022-08-16T05:26:43.181Z,98854.47
2022-08-16T05:29:14.873Z,98842.34
2022-08-16T05:31:48.057Z,98845.38
2022-08-16T05:34:17.929Z,98837.88
2022-08-16T05:36:51.745Z,98833.66
2022-08-16T05:39:22.371Z,98826.94
2022-08-16T05:41:52.249Z,98820.22
2022-08-16T05:44:25.076Z,98820.63
2022-08-16T05:46:56.140Z,98813.34
2022-08-16T05:49:38.291Z,98805.88
2022-08-16T05:52:13.223Z,98800.66
2022-08-16T05:54:58.511Z,98804.66
2022-08-16T05:57:34.442Z,98793.06
2022-08-16T06:00:09.760Z,98791.97
2022-08-16T06:02:38.986Z,98786.00
2022-08-16T06:05:17.137Z,98780.22
2022-08-16T06:07:46.400Z,98767.84
2022-08-16T06:10:32.924Z,98762.81
2022-08-16T06:13:02.708Z,98758.69
2022-08-16T06:15:31.451Z,98761.94
2022-08-16T06:18:00.590Z,98753.88
2022-08-16T06:20:35.176Z,98750.72
2022-08-16T06:23:11.437Z,98740.41
2022-08-16T06:25:41.204Z,98742.66
2022-08-16T06:28:16.598Z,98738.19
2022-08-16T06:30:46.937Z,98734.06
2022-08-16T06:33:22.343Z,98735.56
2022-08-16T06:35:55.270Z,98724.84
2022-08-16T06:38:33.572Z,98724.28
2022-08-16T06:41:05.747Z,98726.00
2022-08-16T06:43:35.857Z,98725.66
2022-08-16T06:46:09.944Z,98721.53
2022-08-16T06:48:43.176Z,98715.34
2022-08-16T06:51:12.556Z,98712.91
2022-08-16T06:53:43.796Z,98713.34
2022-08-16T06:56:14.662Z,98707.16
2022-08-16T06:58:48.338Z,98703.78
2022-08-16T07:01:21.492Z,98694.94
2022-08-16T07:03:57.485Z,98693.63
2022-08-16T07:06:27.292Z,98694.78
2022-08-16T07:08:56.955Z,98688.25
2022-08-16T07:11:45.634Z,98677.91
2022-08-16T07:14:24.350Z,98669.09
2022-08-16T07:16:58.139Z,98662.13
2022-08-16T07:20:03.865Z,98653.88
2022-08-16T07:22:38.022Z,98640.16
2022-08-16T07:25:14.119Z,98635.66
2022-08-16T07:27:44.575Z,98619.09
2022-08-16T07:30:45.006Z,98626.25
2022-08-16T07:33:08.214Z,98621.56
2022-08-16T07:35:37.449Z,98621.41
2022-08-16T07:38:13.296Z,98612.94
2022-08-16T07:41:09.826Z,98607.50
2022-08-16T07:43:40.343Z,98611.06
2022-08-16T07:46:39.737Z,98601.47
2022-08-16T07:49:02.488Z,98601.63
2022-08-16T07:51:37.256Z,98594.28
2022-08-16T07:54:10.200Z,98594.28
2022-08-16T07:56:39.992Z,98595.78
2022-08-16T07:59:08.699Z,98596.91
2022-08-16T08:01:39.576Z,98585.06
2022-08-16T08:04:14.322Z,98587.13
2022-08-16T08:06:43.400Z,98572.44
2022-08-16T08:09:12.120Z,98583.19
2022-08-16T08:11:40.817Z,98581.84
2022-08-16T08:14:29.847Z,98574.38
2022-08-16T08:17:01.459Z,98571.16
2022-08-16T08:19:30.362Z,98571.38
2022-08-16T08:22:02.091Z,98561.00
2022-08-16T08:24:35.755Z,98567.59
2022-08-16T08:27:06.624Z,98559.88
2022-08-16T08:29:40.182Z,98560.63
2022-08-16T08:32:58.370Z,98558.03
2022-08-16T08:35:03.320Z,98552.41
2022-08-16T08:37:54.338Z,98549.16
2022-08-16T08:40:26.818Z,98550.47
2022-08-16T08:43:12.614Z,98552.56
2022-08-16T08:45:49.124Z,98553.88
2022-08-16T08:48:34.189Z,98537.50
2022-08-16T08:51:08.701Z,98539.56
2022-08-16T08:53:39.756Z,98538.63
2022-08-16T08:56:23.103Z,98532.22
2022-08-16T08:58:59.187Z,98524.88
2022-08-16T09:01:36.582Z,98536.72
2022-08-16T09:04:14.813Z,98534.25
2022-08-16T09:06:46.907Z,98532.00
2022-08-16T09:09:16.556Z,98533.88
2022-08-16T09:11:52.954Z,98530.13
2022-08-16T09:14:34.235Z,98529.19
2022-08-16T09:17:17.615Z,98529.56
2022-08-16T09:19:55.658Z,98527.84
2022-08-16T09:22:28.898Z,98531.25
2022-08-16T09:25:10.062Z,98520.88
2022-08-16T09:27:56.780Z,98522.00
2022-08-16T09:30:33.655Z,98521.78
2022-08-16T09:33:07.976Z,98519.34
2022-08-16T09:35:39.341Z,98524.22
2022-08-16T09:38:31.080Z,98525.91
2022-08-16T09:41:14.537Z,98532.69
2022-08-16T09:43:59.554Z,98535.84
2022-08-16T09:46:48.487Z,98535.44
2022-08-16T09:49:20.205Z,98544.81
2022-08-16T09:51:57.262Z,98544.41
2022-08-16T09:54:32.409Z,98551.94
2022-08-16T09:57:01.628Z,98546.66
2022-08-16T09:59:38.361Z,98544.75
2022-08-16T10:02:27.434Z,98549.63
2022-08-16T10:04:58.749Z,98564.28
2022-08-16T10:07:44.102Z,98572.91
2022-08-16T10:10:18.645Z,98574.00
2022-08-16T10:13:08.133Z,98575.88
2022-08-16T10:15:38.193Z,98584.69
2022-08-16T10:19:01.202Z,98594.44
2022-08-16T10:21:02.212Z,98597.63
2022-08-16T10:23:30.737Z,98607.38
2022-08-16T10:27:00.534Z,98614.69
2022-08-16T10:28:50.210Z,98616.53
2022-08-16T10:31:45.417Z,98618.97
2022-08-16T10:34:31.597Z,98628.81
2022-08-16T10:36:57.877Z,98633.84
2022-08-16T10:39:27.144Z,98634.94
2022-08-16T10:42:09.965Z,98649.59
2022-08-16T10:44:38.866Z,98639.78
2022-08-16T10:47:08.390Z,98661.13
2022-08-16T10:49:37.748Z,98666.78
2022-08-16T10:52:18.030Z,98667.09
2022-08-16T10:57:36.714Z,98683.56
2022-08-16T11:00:21.194Z,98693.31
2022-08-16T11:02:58.362Z,98695.38
2022-08-16T11:05:59.177Z,98698.00
2022-08-16T11:08:23.585Z,98696.28
2022-08-16T11:11:06.536Z,98693.47
2022-08-16T11:19:19.017Z,98690.22
2022-08-16T11:24:44.631Z,98692.63
2022-08-16T11:27:19.848Z,98696.97
2022-08-16T11:29:52.086Z,98702.19
2022-08-16T11:32:31.803Z,98711.72
2022-08-16T11:35:10.840Z,98713.78
2022-08-16T11:40:45.259Z,98725.66
2022-08-16T11:43:22.455Z,98727.84
2022-08-16T11:45:54.266Z,98720.28
2022-08-16T11:48:28.631Z,98713.81
2022-08-16T11:50:58.584Z,98713.38
2022-08-16T11:53:28.129Z,98718.16
2022-08-16T11:56:04.915Z,98723.91
2022-08-16T11:58:35.300Z,98718.41
2022-08-16T12:01:04.013Z,98723.59
2022-08-16T12:03:36.261Z,98716.22
2022-08-16T12:06:25.071Z,98717.31
2022-08-16T12:09:00.910Z,98738.63
2022-08-16T12:11:32.006Z,98740.97
2022-08-16T12:14:07.640Z,98752.56
2022-08-16T12:16:37.977Z,98758.50
2022-08-16T12:19:10.575Z,98762.72
2022-08-16T12:21:58.692Z,98765.59
2022-08-16T12:24:29.405Z,98781.50
2022-08-16T12:27:00.069Z,98775.97
2022-08-16T12:29:29.360Z,98784.50
2022-08-16T12:32:01.382Z,98787.44
2022-08-16T12:34:52.677Z,98792.91
2022-08-16T12:37:24.340Z,98794.50
2022-08-16T12:39:57.027Z,98802.50
2022-08-16T12:42:34.765Z,98823.56
2022-08-16T12:45:10.635Z,98822.84
2022-08-16T12:48:15.959Z,98827.25
2022-08-16T12:50:50.257Z,98833.72
2022-08-16T12:53:21.663Z,98833.03
2022-08-16T12:55:51.591Z,98830.75
2022-08-16T12:58:49.637Z,98825.47
2022-08-16T13:01:11.469Z,98842.63
2022-08-16T13:03:41.989Z,98845.72
2022-08-16T13:06:12.552Z,98833.25
2022-08-16T13:08:42.430Z,98846.00
2022-08-16T13:11:17.935Z,98841.47
2022-08-16T13:13:46.564Z,98842.00
2022-08-16T13:16:24.892Z,98838.22
2022-08-16T13:18:54.557Z,98845.63
2022-08-16T13:21:24.146Z,98842.31
2022-08-16T13:23:55.221Z,98834.41
2022-08-16T13:26:26.166Z,98829.34
2022-08-16T13:28:55.686Z,98829.88
2022-08-16T13:31:25.189Z,98849.50
2022-08-16T13:33:58.545Z,98840.88
2022-08-16T13:39:16.959Z,98853.59
2022-08-16T13:41:53.757Z,98866.88
2022-08-16T13:44:48.759Z,98865.13
2022-08-16T13:47:11.683Z,98865.66
2022-08-16T13:49:43.285Z,98860.81
2022-08-16T13:52:13.258Z,98862.91
2022-08-16T13:54:41.825Z,98867.00
2022-08-16T13:57:11.562Z,98863.44
2022-08-16T13:59:40.571Z,98859.88
2022-08-16T14:02:11.345Z,98873.16
2022-08-16T14:04:42.156Z,98882.84
2022-08-16T14:07:20.007Z,98877.25
2022-08-16T14:09:55.252Z,98892.56
2022-08-16T14:12:27.648Z,98905.06
2022-08-16T14:14:58.140Z,98900.75
2022-08-16T14:17:28.551Z,98904.09
2022-08-16T14:19:59.667Z,98903.81
2022-08-16T14:22:35.655Z,98917.63
2022-08-16T14:25:07.202Z,98918.91
2022-08-16T14:27:39.177Z,98922.03
2022-08-16T14:30:15.345Z,98933.75
2022-08-16T14:32:46.952Z,98933.00
2022-08-16T14:35:36.663Z,98937.34
2022-08-16T14:38:18.470Z,98942.19
2022-08-16T14:40:54.863Z,98941.94
2022-08-16T14:43:29.883Z,98968.47
2022-08-16T14:45:59.561Z,98970.31
2022-08-16T14:48:28.210Z,98975.91
2022-08-16T14:50:57.186Z,98980.00
2022-08-16T14:53:27.054Z,98980.00
2022-08-16T14:55:56.061Z,98983.56
2022-08-16T14:58:35.015Z,98992.75
2022-08-16T15:01:10.509Z,99011.63
2022-08-16T15:03:42.342Z,99013.66
2022-08-16T15:06:14.396Z,99018.00
2022-08-16T15:08:43.603Z,99011.63
2022-08-16T15:11:14.512Z,99015.72
2022-08-16T15:13:43.248Z,99018.00
2022-08-16T15:16:12.277Z,99013.13
2022-08-16T15:18:41.098Z,99012.63
2022-08-16T15:21:09.863Z,99004.97
2022-08-16T15:23:41.282Z,99016.41
2022-08-16T15:26:10.396Z,99017.94
2022-08-16T15:28:58.460Z,99025.59
2022-08-16T15:31:28.966Z,99038.09
2022-08-16T15:33:58.350Z,99043.72
2022-08-16T15:36:28.108Z,99034.75
2022-08-16T15:39:05.559Z,99046.75
2022-08-16T15:41:42.590Z,99040.91
2022-08-16T15:44:15.529Z,99040.66
2022-08-16T15:46:55.094Z,99031.50
2022-08-16T15:49:34.968Z,99032.00
2022-08-16T15:52:24.766Z,99024.88
2022-08-16T15:55:00.075Z,99017.75
2022-08-16T15:57:36.985Z,99026.16
2022-08-16T16:00:21.654Z,99026.97
2022-08-16T16:02:50.574Z,99026.44
2022-08-16T16:05:20.947Z,99030.53
2022-08-16T16:07:56.660Z,99031.09
2022-08-16T16:10:39.989Z,99035.41
2022-08-16T16:13:09.767Z,99042.31
2022-08-16T16:15:43.413Z,99033.91
2022-08-16T16:18:13.330Z,99033.91
2022-08-16T16:20:52.565Z,99031.84
2022-08-16T16:23:33.748Z,99034.66
2022-08-16T16:26:03.500Z,99033.66
2022-08-16T16:29:05.246Z,99031.38
2022-08-16T16:31:25.443Z,99030.63
2022-08-16T16:33:58.819Z,99028.34
2022-08-16T16:36:29.621Z,99027.81
2022-08-16T16:38:58.644Z,99024.25
2022-08-16T16:41:29.242Z,99027.59
2022-08-16T16:44:00.542Z,99035.00
2022-08-16T16:46:43.157Z,99021.28
2022-08-16T16:49:14.642Z,99019.50
2022-08-16T16:51:44.478Z,99019.25
2022-08-16T16:54:27.450Z,99015.69
2022-08-16T16:56:58.487Z,99008.31
2022-08-16T16:59:28.706Z,99012.16
2022-08-16T17:02:40.955Z,99006.56
2022-08-16T17:04:49.100Z,99011.16
2022-08-16T17:07:24.078Z,99012.44
2022-08-16T17:09:53.889Z,99011.44
2022-08-16T17:12:25.128Z,99014.25
2022-08-16T17:15:12.188Z,99007.66
2022-08-16T17:18:00.584Z,99006.88
2022-08-16T17:20:31.215Z,99020.38
2022-08-16T17:23:00.475Z,99018.09
2022-08-16T17:25:36.664Z,99016.34
2022-08-16T17:28:58.182Z,99028.31
2022-08-16T17:30:59.584Z,99028.84
2022-08-16T17:33:36.959Z,99019.16
2022-08-16T17:36:36.311Z,99011.75
2022-08-16T17:39:08.598Z,99006.44
2022-08-16T17:41:38.288Z,98997.03
2022-08-16T17:44:11.455Z,98997.56
2022-08-16T17:46:50.359Z,98993.75
2022-08-16T17:49:20.727Z,98995.56
2022-08-16T17:51:49.962Z,98991.22
2022-08-16T17:54:30.219Z,98986.16
2022-08-16T17:57:01.418Z,98989.47
2022-08-16T17:59:31.726Z,98982.09
2022-08-16T18:02:42.632Z,98992.28
2022-08-16T18:04:56.639Z,98990.22
2022-08-16T18:07:25.256Z,98990.75
2022-08-16T18:09:54.611Z,98993.78
2022-08-16T18:12:54.784Z,98993.78
2022-08-16T18:15:15.783Z,98991.75
2022-08-16T18:17:44.944Z,98998.13
2022-08-16T18:20:34.642Z,98993.28
2022-08-16T18:23:21.909Z,99000.91
2022-08-16T18:25:57.824Z,98996.59
2022-08-16T18:28:29.436Z,98999.16
2022-08-16T18:31:01.179Z,98999.16
2022-08-16T18:33:36.527Z,98991.28
2022-08-16T18:36:20.882Z,98993.31
2022-08-16T18:38:51.731Z,98987.72
2022-08-16T18:41:22.708Z,98991.78
2022-08-16T18:44:23.718Z,98990.50
2022-08-16T18:46:45.997Z,98986.19
2022-08-16T18:49:20.542Z,98981.88
2022-08-16T18:51:50.293Z,98970.41
2022-08-16T18:54:19.333Z,98964.06
2022-08-16T18:56:55.824Z,98967.38
2022-08-16T18:59:30.029Z,98955.16
2022-08-16T19:02:04.999Z,98956.47
2022-08-16T19:04:48.984Z,98953.19
2022-08-16T19:07:30.572Z,98950.66
2022-08-16T19:10:02.457Z,98951.69
2022-08-16T19:12:38.917Z,98950.94
2022-08-16T19:15:15.899Z,98944.34
2022-08-16T19:17:46.049Z,98944.59
2022-08-16T19:20:21.784Z,98945.09
2022-08-16T19:23:10.621Z,98943.06
2022-08-16T19:25:48.775Z,98941.03
2022-08-16T19:28:50.994Z,98931.63
2022-08-16T19:31:14.890Z,98929.81
2022-08-16T19:33:53.597Z,98924.22
2022-08-16T19:36:30.606Z,98925.50
2022-08-16T19:39:05.163Z,98924.22
2022-08-16T19:41:36.441Z,98921.94
2022-08-16T19:44:06.699Z,98920.13
2022-08-16T19:46:36.065Z,98923.47
2022-08-16T19:49:06.723Z,98920.66
2022-08-16T19:51:35.346Z,98932.09
2022-08-16T19:54:06.559Z,98922.94
2022-08-16T19:56:35.406Z,98924.69
2022-08-16T19:59:21.983Z,98924.69
2022-08-16T20:01:53.218Z,98921.38
2022-08-16T20:04:23.867Z,98914.78
2022-08-16T20:06:54.200Z,98921.63
2022-08-16T20:09:24.306Z,98906.09
2022-08-16T20:11:54.316Z,98912.44
2022-08-16T20:14:25.401Z,98908.88
2022-08-16T20:16:57.512Z,98908.88
2022-08-16T20:19:28.299Z,98898.44
2022-08-16T20:21:59.177Z,98902.78
2022-08-16T20:24:34.554Z,98901.50
2022-08-16T20:27:09.850Z,98908.38
2022-08-16T20:29:41.131Z,98905.56
2022-08-16T20:32:14.427Z,98908.38
2022-08-16T20:34:44.617Z,98907.59
2022-08-16T20:37:13.913Z,98911.94
2022-08-16T20:39:45.221Z,98903.28
2022-08-16T20:42:16.397Z,98909.88
2022-08-16T20:44:45.994Z,98913.22
2022-08-16T20:47:14.942Z,98911.69
2022-08-16T20:49:43.660Z,98910.41
2022-08-16T20:52:20.665Z,98910.16
2022-08-16T20:54:50.333Z,98906.09
2022-08-16T20:57:19.660Z,98908.88
2022-08-16T20:59:50.322Z,98901.25
2022-08-16T21:02:26.608Z,98902.00
2022-08-16T21:04:56.131Z,98899.22
2022-08-16T21:07:24.939Z,98896.66
2022-08-16T21:09:54.106Z,98889.75
2022-08-16T21:12:22.844Z,98887.72
2022-08-16T21:14:54.360Z,98885.69
2022-08-16T21:17:23.038Z,98889.75
2022-08-16T21:19:51.606Z,98897.41
2022-08-16T21:22:24.862Z,98885.44
2022-08-16T21:24:54.157Z,98889.00
2022-08-16T21:27:24.302Z,98884.69
2022-08-16T21:29:55.787Z,98884.41
2022-08-16T21:32:35.245Z,98880.06
2022-08-16T21:35:13.574Z,98880.84
2022-08-16T21:37:43.162Z,98885.16
2022-08-16T21:40:33.703Z,98881.84
2022-08-16T21:43:12.463Z,98870.91
2022-08-16T21:45:42.536Z,98878.78
2022-08-16T21:48:11.624Z,98884.63
2022-08-16T21:50:41.800Z,98881.59
2022-08-16T21:53:18.126Z,98881.06
2022-08-16T21:55:49.073Z,98879.03
2022-08-16T21:58:17.696Z,98878.28
2022-08-16T22:00:46.789Z,98874.72
2022-08-16T22:03:15.557Z,98865.03
2022-08-16T22:05:46.702Z,98874.44
2022-08-16T22:08:48.028Z,98866.25
2022-08-16T22:11:20.999Z,98867.53
2022-08-16T22:13:57.704Z,98867.03
2022-08-16T22:16:30.431Z,98861.94
2022-08-16T22:18:59.418Z,98861.94
2022-08-16T22:21:28.159Z,98855.06
2022-08-16T22:23:58.781Z,98855.06
2022-08-16T22:26:32.914Z,98850.72
2022-08-16T22:29:04.472Z,98854.28
2022-08-16T22:31:34.003Z,98859.13
2022-08-16T22:34:03.262Z,98852.25
2022-08-16T22:36:34.048Z,98861.19
2022-08-16T22:39:05.306Z,98860.66
2022-08-16T22:41:35.984Z,98852.03
2022-08-16T22:44:06.821Z,98858.38
2022-08-16T22:46:37.547Z,98849.97
2022-08-16T22:49:09.675Z,98856.34
2022-08-16T22:51:39.870Z,98853.53
2022-08-16T22:54:41.433Z,98854.06
2022-08-16T22:56:58.650Z,98847.19
2022-08-16T22:59:27.308Z,98840.81
2022-08-16T23:01:56.163Z,98850.72
2022-08-16T23:04:25.972Z,98850.72
2022-08-16T23:06:54.850Z,98848.69
2022-08-16T23:09:23.618Z,98851.75
2022-08-16T23:11:52.620Z,98848.44
2022-08-16T23:14:21.235Z,98848.44
2022-08-16T23:16:49.841Z,98852.75
2022-08-16T23:19:18.670Z,98843.81
2022-08-16T23:21:48.473Z,98855.78
2022-08-16T23:24:21.302Z,98863.66
2022-08-16T23:26:50.375Z,98871.03
2022-08-16T23:29:26.265Z,98873.31
2022-08-16T23:32:10.379Z,98871.28
2022-08-16T23:34:39.010Z,98881.94
2022-08-16T23:37:07.646Z,98883.47
2022-08-16T23:39:36.924Z,98882.44
2022-08-16T23:42:52.204Z,98884.94
2022-08-16T23:45:07.509Z,98890.03
2022-08-16T23:47:36.098Z,98889.72
2022-08-16T23:50:05.078Z,98893.56
2022-08-16T23:52:45.697Z,98896.59
2022-08-16T23:55:23.123Z,98893.53
2022-08-16T23:57:52.281Z,98895.81
